Time;durP1;ratioP1;P1;durP2;ratioP2;P2;SDS_P1;SDS_P2;PMS_P1;PMS_P2;Temp;Humidity;BMP_temperature;BMP_pressure;BME280_temperature;BME280_humidity;BME280_pressure;Samples;Min_cycle;Max_cycle;Signal;HPM_P1;HPM_P2
2022/05/02 00:00:59;;;;;;;;;16.25;14.00;;;;;15.23;62.03;101645.75;5077130;27;45311;-78
2022/05/02 00:03:25;;;;;;;;;13.25;13.25;;;;;15.10;61.50;101615.69;5077183;27;45445;-78
2022/05/02 00:05:51;;;;;;;;;13.50;12.00;;;;;15.20;61.95;101636.09;5074589;27;46734;-78
2022/05/02 00:08:16;;;;;;;;;16.00;12.50;;;;;15.27;61.37;101647.66;5075723;27;45254;-78
2022/05/02 00:10:42;;;;;;;;;15.75;13.00;;;;;15.26;61.64;101635.44;5076308;27;45293;-78
2022/05/02 00:13:09;;;;;;;;;16.00;13.75;;;;;15.26;61.81;101635.44;5076653;28;45497;-77
2022/05/02 00:15:37;;;;;;;;;14.50;13.25;;;;;15.26;61.58;101636.31;5076039;27;46172;-78
2022/05/02 00:18:04;;;;;;;;;14.75;12.50;;;;;15.17;61.82;101626.41;5076012;27;45583;-77
2022/05/02 00:20:34;;;;;;;;;13.25;12.50;;;;;15.25;62.32;101641.47;5075833;28;45312;-78
2022/05/02 00:23:02;;;;;;;;;14.25;14.25;;;;;15.26;61.94;101628.47;5077473;27;45486;-77
2022/05/02 00:25:31;;;;;;;;;13.50;11.00;;;;;15.22;62.15;101637.03;5079176;27;46125;-77
2022/05/02 00:27:58;;;;;;;;;17.25;15.75;;;;;15.22;62.21;101628.31;5078879;27;45770;-77
2022/05/02 00:30:24;;;;;;;;;13.75;13.75;;;;;15.20;62.12;101633.47;5079201;27;45318;-75
2022/05/02 00:32:49;;;;;;;;;12.00;12.00;;;;;15.20;62.30;101630.88;5079200;28;45572;-75
2022/05/02 00:35:15;;;;;;;;;13.75;13.50;;;;;15.16;62.24;101622.03;5077878;27;47488;-76
2022/05/02 00:37:42;;;;;;;;;15.00;14.25;;;;;15.11;62.27;101615.75;5080296;27;45360;-77
2022/05/02 00:40:10;;;;;;;;;16.25;13.50;;;;;15.20;62.21;101623.03;5084055;27;45259;-77
2022/05/02 00:42:37;;;;;;;;;12.50;11.75;;;;;15.22;62.32;101620.47;5084100;27;45631;-77
2022/05/02 00:45:07;;;;;;;;;14.00;14.00;;;;;15.26;62.22;101625.88;5084428;27;46876;-77
2022/05/02 00:47:33;;;;;;;;;14.50;14.00;;;;;15.22;62.23;101613.56;5082152;27;45410;-76
2022/05/02 00:49:58;;;;;;;;;15.25;14.00;;;;;15.24;61.63;101619.69;5077952;27;45320;-77
2022/05/02 00:52:24;;;;;;;;;17.00;16.75;;;;;15.15;61.96;101607.22;5079416;27;45481;-77
2022/05/02 00:54:50;;;;;;;;;13.75;12.25;;;;;15.19;62.59;101615.13;5078472;27;45930;-77
2022/05/02 00:57:16;;;;;;;;;15.00;13.00;;;;;15.16;62.12;101608.09;5078754;27;45181;-77
2022/05/02 00:59:43;;;;;;;;;15.25;14.00;;;;;15.09;62.31;101593.91;5078779;27;45286;-77
2022/05/02 01:02:14;;;;;;;;;13.00;11.00;;;;;15.10;62.58;101600.91;5079114;28;45395;-77
2022/05/02 01:04:42;;;;;;;;;15.25;15.25;;;;;15.07;62.80;101599.91;5078326;27;45245;-77
2022/05/02 01:07:19;;;;;;;;;13.75;13.75;;;;;15.07;62.95;101589.47;5079013;27;45684;-77
2022/05/02 01:09:48;;;;;;;;;15.75;15.25;;;;;15.05;62.96;101592.03;5078852;27;45433;-77
2022/05/02 01:12:20;;;;;;;;;15.25;14.00;;;;;14.97;62.39;101572.56;5079002;27;45231;-78
2022/05/02 01:14:48;;;;;;;;;15.25;14.75;;;;;14.99;63.15;101582.25;5078417;27;45641;-77
2022/05/02 01:17:14;;;;;;;;;15.25;14.25;;;;;14.99;62.65;101570.91;5078371;27;45236;-77
2022/05/02 01:19:40;;;;;;;;;16.25;15.25;;;;;14.99;62.58;101576.13;5078211;27;45280;-77
2022/05/02 01:22:07;;;;;;;;;16.00;15.50;;;;;14.95;63.07;101569.03;5082589;28;45500;-77
2022/05/02 01:24:36;;;;;;;;;17.00;16.00;;;;;14.96;63.02;101569.09;5082358;27;45481;-77
2022/05/02 01:27:01;;;;;;;;;16.00;15.50;;;;;15.00;63.05;101573.59;5079146;27;45362;-77
2022/05/02 01:29:31;;;;;;;;;17.00;17.00;;;;;15.00;63.07;101576.22;5079428;27;45477;-77
2022/05/02 01:31:57;;;;;;;;;19.25;16.50;;;;;15.02;62.73;101573.66;5077632;27;45280;-77
2022/05/02 01:34:23;;;;;;;;;15.00;14.50;;;;;15.04;62.69;101572.00;5077582;27;45261;-76
2022/05/02 01:36:48;;;;;;;;;15.25;14.25;;;;;14.97;62.42;101563.06;5078040;28;45453;-77
2022/05/02 01:39:14;;;;;;;;;12.75;10.00;;;;;15.05;62.26;101573.78;5078518;27;45322;-77
2022/05/02 01:41:40;;;;;;;;;17.00;16.25;;;;;15.01;62.60;101580.56;5078108;27;45568;-77
2022/05/02 01:44:06;;;;;;;;;18.00;17.50;;;;;15.02;62.28;101584.09;5077988;27;45542;-77
2022/05/02 01:46:31;;;;;;;;;15.75;15.00;;;;;14.92;62.85;101572.41;5077860;28;45501;-76
2022/05/02 01:48:58;;;;;;;;;20.25;17.50;;;;;14.90;62.70;101587.09;5077701;27;45377;-77
2022/05/02 01:51:24;;;;;;;;;19.50;17.75;;;;;14.79;62.76;101575.38;5078190;27;45543;-77
2022/05/02 01:53:50;;;;;;;;;18.50;17.00;;;;;14.81;62.96;101579.81;5077459;27;46021;-77
2022/05/02 01:56:15;;;;;;;;;20.75;18.00;;;;;14.78;62.96;101578.81;5077763;27;45284;-77
2022/05/02 01:58:41;;;;;;;;;19.00;18.25;;;;;14.77;62.52;101582.25;5077435;27;45343;-77
2022/05/02 02:01:06;;;;;;;;;19.00;17.00;;;;;14.72;62.82;101575.94;5076903;28;45471;-77
2022/05/02 02:03:32;;;;;;;;;22.25;18.50;;;;;14.75;62.71;101582.16;5076458;28;46774;-77
2022/05/02 02:05:59;;;;;;;;;20.25;17.75;;;;;14.79;62.97;101585.81;5077374;27;45457;-77
2022/05/02 02:08:30;;;;;;;;;21.50;19.00;;;;;14.75;62.97;101584.75;5078255;27;45433;-76
2022/05/02 02:10:58;;;;;;;;;18.00;17.75;;;;;14.75;63.04;101582.16;5081416;27;45252;-76
2022/05/02 02:13:24;;;;;;;;;20.25;19.50;;;;;14.74;63.13;101577.75;5080854;27;45399;-76
2022/05/02 02:15:50;;;;;;;;;19.75;19.50;;;;;14.73;63.61;101569.91;5080804;27;45386;-76
2022/05/02 02:18:15;;;;;;;;;18.25;17.50;;;;;14.77;63.08;101580.50;5076604;27;45432;-77
2022/05/02 02:20:47;;;;;;;;;22.00;20.00;;;;;14.73;63.34;101575.09;5077502;27;45310;-77
2022/05/02 02:23:14;;;;;;;;;19.50;19.50;;;;;14.76;63.28;101573.50;5077504;27;46420;-77
2022/05/02 02:25:40;;;;;;;;;21.50;20.00;;;;;14.76;62.79;101573.50;5077102;27;46046;-77
2022/05/02 02:28:06;;;;;;;;;16.25;14.25;;;;;14.81;63.13;101577.19;5077740;27;45400;-77
2022/05/02 02:30:32;;;;;;;;;20.50;19.25;;;;;14.84;62.92;101579.03;5077681;27;45457;-77
2022/05/02 02:32:59;;;;;;;;;23.00;22.50;;;;;14.77;62.00;101564.84;5076850;27;45905;-77
2022/05/02 02:35:25;;;;;;;;;27.50;24.00;;;;;14.79;62.43;101563.22;5077133;27;45855;-77
2022/05/02 02:37:51;;;;;;;;;23.50;20.25;;;;;14.72;61.92;101549.88;5077109;27;45275;-77
2022/05/02 02:40:17;;;;;;;;;22.25;21.25;;;;;14.76;62.64;101560.47;5077465;27;45545;-77
2022/05/02 02:42:43;;;;;;;;;22.50;22.00;;;;;14.76;62.66;101563.06;5076609;27;45421;-76
2022/05/02 02:45:09;;;;;;;;;24.75;22.25;;;;;14.70;62.53;101561.13;5075865;28;45389;-77
2022/05/02 02:47:35;;;;;;;;;24.25;22.00;;;;;14.72;62.38;101555.09;5077285;27;45471;-78
2022/05/02 02:50:01;;;;;;;;;24.25;22.00;;;;;14.64;62.54;101555.63;5077184;27;45259;-77
2022/05/02 02:52:26;;;;;;;;;24.50;22.25;;;;;14.65;63.12;101561.72;5076933;27;45476;-77
2022/05/02 02:54:52;;;;;;;;;21.75;21.75;;;;;14.57;63.05;101553.63;5083360;27;45318;-77
2022/05/02 02:57:18;;;;;;;;;21.25;19.50;;;;;14.59;63.29;101564.97;5084207;27;45416;-77
2022/05/02 02:59:43;;;;;;;;;24.25;21.25;;;;;14.59;63.33;101554.56;5077762;27;45325;-77
2022/05/02 03:02:10;;;;;;;;;22.00;21.75;;;;;14.59;63.04;101548.47;5077413;27;45235;-77
2022/05/02 03:07:23;;;;;;;;;26.25;23.00;;;;;14.46;62.55;101536.66;5076967;27;45220;-77
2022/05/02 03:09:48;;;;;;;;;28.00;22.25;;;;;14.47;63.04;101546.28;5076942;27;45542;-77
2022/05/02 03:12:14;;;;;;;;;25.25;22.50;;;;;14.46;63.61;101540.16;5076450;27;46034;-76
2022/05/02 03:14:40;;;;;;;;;26.25;23.50;;;;;14.45;63.52;101535.75;5076299;27;45384;-77
2022/05/02 03:17:05;;;;;;;;;26.75;23.75;;;;;14.45;63.71;101533.16;5076841;28;45490;-77
2022/05/02 03:19:31;;;;;;;;;29.25;26.00;;;;;14.45;63.45;101533.16;5075547;28;45355;-77
2022/05/02 03:21:57;;;;;;;;;24.75;22.00;;;;;14.44;63.35;101531.38;5076004;27;45737;-77
2022/05/02 03:24:22;;;;;;;;;29.25;23.25;;;;;14.43;63.86;101521.78;5076257;27;45433;-77
2022/05/02 03:26:48;;;;;;;;;23.75;22.00;;;;;14.44;63.12;101528.75;5076197;27;45168;-76
2022/05/02 03:29:14;;;;;;;;;22.50;20.25;;;;;14.38;63.57;101519.00;5076629;27;45209;-77
2022/05/02 03:31:40;;;;;;;;;33.25;27.25;;;;;14.44;64.10;101531.38;5075853;27;46050;-77
2022/05/02 03:34:05;;;;;;;;;26.00;24.00;;;;;14.40;64.15;101524.28;5076539;27;45251;-76
2022/05/02 03:36:31;;;;;;;;;23.75;23.75;;;;;14.42;63.54;101527.81;5076391;27;45247;-76
2022/05/02 03:38:57;;;;;;;;;24.25;22.50;;;;;14.36;63.76;101512.81;5079871;27;45438;-76
2022/05/02 03:41:22;;;;;;;;;29.25;25.25;;;;;14.39;63.33;101523.38;5084134;28;45384;-77
2022/05/02 03:43:48;;;;;;;;;23.75;21.25;;;;;14.34;63.82;101524.91;5078149;27;45299;-76
2022/05/02 03:46:14;;;;;;;;;23.00;22.00;;;;;14.37;63.45;101518.94;5075568;28;45331;-76
2022/05/02 03:48:39;;;;;;;;;24.00;22.25;;;;;14.40;63.77;101521.69;5076476;27;45503;-76
2022/05/02 03:51:05;;;;;;;;;27.00;24.00;;;;;14.41;63.72;101518.25;5075061;27;46096;-77
2022/05/02 03:53:30;;;;;;;;;24.25;21.00;;;;;14.42;64.18;101525.22;5076124;27;45346;-75
2022/05/02 03:55:56;;;;;;;;;26.75;21.50;;;;;14.43;63.34;101519.16;5074838;27;45394;-76
2022/05/02 03:58:22;;;;;;;;;28.25;27.00;;;;;14.44;63.44;101526.16;5080133;27;45489;-77
2022/05/02 04:00:48;;;;;;;;;24.25;22.50;;;;;14.44;63.17;101528.75;5079390;27;46073;-77
2022/05/02 04:03:15;;;;;;;;;24.50;20.75;;;;;14.39;62.83;101512.09;5079665;28;45275;-77
2022/05/02 04:05:40;;;;;;;;;23.25;22.25;;;;;14.39;63.10;101523.38;5079560;27;45309;-77
2022/05/02 04:08:06;;;;;;;;;29.00;27.00;;;;;14.35;63.26;101511.06;5079978;27;45368;-77
2022/05/02 04:10:32;;;;;;;;;24.50;21.50;;;;;14.38;63.21;101523.31;5079333;27;45251;-76
2022/05/02 04:12:57;;;;;;;;;28.00;27.50;;;;;14.33;63.30;101517.94;5077860;28;45597;-77
2022/05/02 04:15:23;;;;;;;;;29.25;26.00;;;;;14.27;63.24;101522.00;5078160;27;45422;-77
2022/05/02 04:17:48;;;;;;;;;23.00;21.00;;;;;14.26;63.46;101528.03;5079473;27;45322;-76
2022/05/02 04:20:14;;;;;;;;;24.75;23.50;;;;;14.20;63.63;101526.06;5078990;27;45386;-77
2022/05/02 04:22:41;;;;;;;;;23.75;23.50;;;;;14.19;63.75;101532.09;5079155;27;45346;-76
2022/05/02 04:25:07;;;;;;;;;28.00;23.50;;;;;14.14;63.68;101531.91;5087274;27;45341;-76
2022/05/02 04:27:34;;;;;;;;;26.25;25.25;;;;;14.16;64.08;101526.75;5086081;27;45477;-76
2022/05/02 04:29:59;;;;;;;;;26.50;25.25;;;;;14.16;65.92;101529.34;5079162;27;45352;-76
2022/05/02 04:32:25;;;;;;;;;26.75;26.75;;;;;13.90;68.10;101501.41;5079421;28;45215;-75
2022/05/02 04:34:54;;;;;;;;;23.50;22.75;;;;;13.98;70.72;101532.97;5078737;27;45261;-75
2022/05/02 04:37:19;;;;;;;;;26.00;24.50;;;;;13.93;70.61;101531.88;5077866;28;45636;-75
2022/05/02 04:39:45;;;;;;;;;25.75;22.75;;;;;13.84;71.54;101521.97;5078545;27;45378;-75
2022/05/02 04:42:11;;;;;;;;;25.75;23.50;;;;;13.85;72.17;101525.44;5078814;27;45412;-75
2022/05/02 04:44:36;;;;;;;;;23.25;20.50;;;;;13.82;71.71;101523.63;5079384;27;45401;-74
2022/05/02 04:47:02;;;;;;;;;23.00;19.00;;;;;13.84;72.37;101535.00;5078955;27;45449;-74
2022/05/02 04:49:28;;;;;;;;;26.75;23.75;;;;;13.83;73.23;101530.59;5078576;28;45373;-75
2022/05/02 04:51:54;;;;;;;;;25.25;25.25;;;;;13.87;72.54;101531.63;5078431;27;45177;-75
2022/05/02 04:54:19;;;;;;;;;26.25;22.75;;;;;13.86;73.39;101541.16;5078921;27;45239;-75
2022/05/02 04:56:45;;;;;;;;;32.00;24.75;;;;;13.78;74.11;101533.00;5078655;27;45612;-77
2022/05/02 04:59:11;;;;;;;;;22.25;21.25;;;;;13.76;74.11;101533.78;5078326;27;45367;-75
2022/05/02 05:01:36;;;;;;;;;25.00;24.75;;;;;13.66;74.08;101516.88;5078801;27;45204;-76
2022/05/02 05:04:02;;;;;;;;;27.50;24.25;;;;;13.78;74.50;101532.09;5078370;27;45237;-75
2022/05/02 05:06:28;;;;;;;;;24.75;22.50;;;;;13.68;75.33;101524.72;5078885;27;45246;-76
2022/05/02 05:08:53;;;;;;;;;24.75;22.25;;;;;13.76;75.17;101536.38;5080432;28;45314;-75
2022/05/02 05:11:28;;;;;;;;;24.50;22.00;;;;;13.77;75.27;101539.03;5085192;27;45378;-75
2022/05/02 05:17:22;;;;;;;;;25.00;22.25;;;;;13.73;75.14;101539.72;5078491;28;45243;-75
2022/05/02 05:20:09;;;;;;;;;26.25;26.25;;;;;13.75;75.56;101540.69;5061731;27;45435;-75
2022/05/02 05:22:38;;;;;;;;;25.50;24.25;;;;;13.76;76.12;101541.59;5078555;27;45823;-76
2022/05/02 05:25:22;;;;;;;;;22.75;22.50;;;;;13.78;76.08;101543.41;5078605;27;45380;-77
2022/05/02 05:28:09;;;;;;;;;27.50;26.25;;;;;13.76;76.01;101542.47;5078340;27;45698;-75
2022/05/02 05:30:44;;;;;;;;;24.25;23.50;;;;;13.71;75.68;101528.38;5078565;27;45443;-75
2022/05/02 05:33:31;;;;;;;;;25.25;22.25;;;;;13.76;75.79;101534.66;5076881;28;45376;-75
2022/05/02 05:35:59;;;;;;;;;29.75;27.75;;;;;13.80;75.44;101545.19;5076579;27;45513;-76
2022/05/02 05:38:44;;;;;;;;;33.00;30.00;;;;;13.78;76.35;101540.81;5078461;27;45321;-76
2022/05/02 05:41:45;;;;;;;;;36.75;32.75;;;;;13.69;76.21;101523.91;5078298;28;46152;-77
2022/05/02 05:44:36;;;;;;;;;31.25;29.25;;;;;13.73;76.17;101531.91;5076432;27;45533;-76
2022/05/02 05:47:29;;;;;;;;;34.25;29.75;;;;;13.73;76.44;101531.03;5058010;27;45523;-76
2022/05/02 05:50:21;;;;;;;;;40.00;31.00;;;;;13.73;76.09;101533.63;5078220;28;45173;-78
2022/05/02 05:53:02;;;;;;;;;34.50;31.25;;;;;13.76;75.08;101534.66;5077814;27;46205;-75
2022/05/02 05:55:49;;;;;;;;;32.75;30.25;;;;;13.82;74.85;101531.44;5085798;27;45346;-76
2022/05/02 05:58:57;;;;;;;;;35.00;30.00;;;;;13.76;75.71;101521.63;5079499;27;45248;-76
2022/05/02 06:01:39;;;;;;;;;21.75;20.25;;;;;13.85;75.33;101533.25;5077006;28;45533;-76
2022/05/02 06:04:07;;;;;;;;;31.00;28.25;;;;;13.96;74.94;101544.16;5078563;27;45393;-78
2022/05/02 06:06:35;;;;;;;;;34.25;30.50;;;;;14.03;74.87;101533.16;5077989;27;45239;-78
2022/05/02 06:09:02;;;;;;;;;38.75;32.25;;;;;14.10;74.75;101532.59;5077530;27;45235;-77
2022/05/02 06:11:29;;;;;;;;;43.00;33.25;;;;;14.13;73.43;101535.31;5078084;27;45177;-76
2022/05/02 06:13:57;;;;;;;;;38.50;32.50;;;;;14.08;73.21;101540.34;5076101;27;48050;-77
2022/05/02 06:19:25;;;;;;;;;37.50;33.00;;;;;14.14;74.46;101542.31;5077501;28;45314;-77
2022/05/02 06:21:52;;;;;;;;;40.75;33.25;;;;;14.16;74.40;101537.16;5077405;27;45500;-78
2022/05/02 06:24:18;;;;;;;;;37.75;33.00;;;;;14.18;73.61;101527.69;5077245;27;46279;-77
2022/05/02 06:26:49;;;;;;;;;38.25;33.25;;;;;14.26;73.54;101538.44;5077156;27;45339;-78
2022/05/02 06:29:18;;;;;;;;;41.00;35.25;;;;;14.30;73.26;101542.97;5077672;27;45362;-78
2022/05/02 06:31:47;;;;;;;;;38.00;33.00;;;;;14.30;73.57;101538.63;5077763;27;45520;-78
2022/05/02 06:34:17;;;;;;;;;40.50;30.00;;;;;14.30;72.68;101528.22;5077396;27;45918;-77
2022/05/02 06:37:15;;;;;;;;;36.25;32.25;;;;;14.38;72.76;101538.94;5077046;27;45268;-77
2022/05/02 06:40:02;;;;;;;;;32.75;31.00;;;;;14.40;72.92;101535.56;5064248;27;45478;-76
2022/05/02 06:43:03;;;;;;;;;39.50;34.25;;;;;14.40;72.58;101532.97;5082371;27;45388;-76
2022/05/02 06:45:49;;;;;;;;;47.50;36.25;;;;;14.41;72.56;101536.47;5076165;28;46913;-76
2022/05/02 06:48:31;;;;;;;;;42.50;35.25;;;;;14.50;72.95;101541.16;5076975;27;45787;-77
2022/05/02 06:51:20;;;;;;;;;35.25;31.00;;;;;14.53;72.31;101547.38;5077320;27;45423;-77
2022/05/02 06:54:18;;;;;;;;;43.50;33.25;;;;;14.55;72.72;101544.84;5077415;27;45270;-77
2022/05/02 06:56:55;;;;;;;;;43.25;34.00;;;;;14.57;72.47;101555.31;5075097;28;47488;-77
2022/05/02 06:59:37;;;;;;;;;42.25;34.00;;;;;14.57;72.43;101545.81;5076806;27;45992;-77
2022/05/02 07:02:11;;;;;;;;;37.75;33.00;;;;;14.67;72.62;101550.59;5077268;27;45310;-76
2022/05/02 07:04:52;;;;;;;;;36.00;32.25;;;;;14.75;71.78;101556.09;5077458;27;45486;-77
2022/05/02 07:07:31;;;;;;;;;46.25;36.00;;;;;14.79;71.19;101546.69;5076622;28;45285;-77
2022/05/02 07:10:12;;;;;;;;;41.75;33.00;;;;;14.79;70.74;101544.97;5076494;28;45364;-78
2022/05/02 07:12:48;;;;;;;;;39.25;32.50;;;;;14.81;70.88;101547.63;5076981;27;45393;-77
2022/05/02 07:15:23;;;;;;;;;47.00;36.25;;;;;14.84;71.08;101551.25;5077034;28;45208;-77
2022/05/02 07:18:08;;;;;;;;;34.00;32.00;;;;;14.89;68.71;101543.63;5074646;27;47264;-78
2022/05/02 07:20:52;;;;;;;;;34.75;29.75;;;;;14.94;67.76;101544.66;5076408;27;45259;-78
2022/05/02 07:23:43;;;;;;;;;33.25;31.00;;;;;15.02;65.84;101539.75;5076393;27;45333;-77
2022/05/02 07:26:14;;;;;;;;;35.75;30.50;;;;;15.02;64.75;101543.22;5077096;27;45429;-76
2022/05/02 07:28:48;;;;;;;;;34.50;32.00;;;;;15.04;63.43;101535.50;5081766;27;46767;-76
2022/05/02 07:31:19;;;;;;;;;37.25;32.00;;;;;15.08;63.83;101539.97;5076773;27;45822;-75
2022/05/02 07:33:47;;;;;;;;;31.25;30.00;;;;;15.13;63.47;101546.28;5077196;27;45376;-76
2022/05/02 07:36:18;;;;;;;;;36.50;30.50;;;;;15.16;63.15;101548.09;5076858;27;45374;-75
2022/05/02 07:38:52;;;;;;;;;36.25;32.50;;;;;15.17;62.64;101553.34;5076042;27;46023;-78
2022/05/02 07:41:23;;;;;;;;;34.25;30.75;;;;;15.21;62.04;101550.88;5075302;28;45942;-77
2022/05/02 07:44:06;;;;;;;;;32.75;29.75;;;;;15.24;62.55;101551.88;5076229;27;45235;-76
2022/05/02 07:46:36;;;;;;;;;35.25;32.25;;;;;15.34;62.34;101547.91;5076774;27;45314;-76
2022/05/02 07:49:04;;;;;;;;;32.75;30.00;;;;;15.42;61.79;101545.59;5075883;27;45401;-77
2022/05/02 07:51:31;;;;;;;;;38.50;33.00;;;;;15.45;61.12;101543.97;5076263;27;45910;-79
2022/05/02 07:53:58;;;;;;;;;36.75;32.50;;;;;15.55;60.97;101545.16;5075987;27;45280;-78
2022/05/02 07:56:30;;;;;;;;;36.25;31.50;;;;;15.67;60.83;101552.56;5076552;28;45500;-78
2022/05/02 07:58:58;;;;;;;;;40.25;33.75;;;;;15.74;59.88;101543.25;5074370;27;46458;-78
2022/05/02 08:01:25;;;;;;;;;38.50;32.75;;;;;15.79;59.65;101526.91;5075976;27;45921;-78
2022/05/02 08:03:52;;;;;;;;;42.00;35.00;;;;;15.97;59.75;101536.22;5074515;28;45357;-78
2022/05/02 08:06:43;;;;;;;;;44.75;35.50;;;;;16.11;59.63;101544.53;5075289;28;45387;-78
2022/05/02 08:09:32;;;;;;;;;44.00;35.00;;;;;16.19;58.95;101535.25;5075949;28;45461;-77
2022/05/02 08:12:16;;;;;;;;;40.50;33.75;;;;;16.24;58.01;101544.09;5080020;27;45840;-75
2022/05/02 08:15:22;;;;;;;;;42.50;35.00;;;;;16.27;58.01;101548.53;5079607;27;45428;-78
2022/05/02 08:18:23;;;;;;;;;43.50;36.00;;;;;16.36;58.49;101540.13;5079191;27;45250;-77
2022/05/02 08:21:07;;;;;;;;;40.00;35.00;;;;;16.48;57.96;101552.69;5076555;28;45327;-78
2022/05/02 08:27:15;;;;;;;;;47.50;36.00;;;;;16.73;57.47;101548.25;5075599;28;45181;-78
2022/05/02 08:30:01;;;;;;;;;44.75;35.50;;;;;16.81;56.65;101537.22;5075834;27;45334;-77
2022/05/02 08:32:53;;;;;;;;;44.50;35.00;;;;;16.80;57.04;101524.06;5075673;27;45357;-76
2022/05/02 08:35:34;;;;;;;;;42.25;34.50;;;;;16.89;57.05;101532.22;5076124;27;45504;-76
2022/05/02 08:38:21;;;;;;;;;39.00;34.75;;;;;16.94;56.78;101538.50;5075707;27;45334;-77
2022/05/02 08:41:28;;;;;;;;;39.50;34.75;;;;;17.01;56.58;101535.22;5076025;27;45339;-77
2022/05/02 08:44:33;;;;;;;;;42.50;35.00;;;;;16.92;56.87;101506.13;5076020;27;47144;-79
2022/05/02 08:47:20;;;;;;;;;45.25;38.25;;;;;17.11;56.41;101538.13;5078942;27;45989;-79
2022/05/02 08:50:17;;;;;;;;;37.75;32.75;;;;;17.15;56.48;101534.72;5077835;27;45507;-80
2022/05/02 08:53:21;;;;;;;;;43.50;37.75;;;;;17.24;56.49;101529.75;5079955;27;45591;-78
2022/05/02 08:56:05;;;;;;;;;44.50;37.25;;;;;17.28;56.49;101531.63;5076376;27;46638;-79
2022/05/02 08:58:52;;;;;;;;;43.25;37.25;;;;;17.32;56.52;101535.22;5083467;27;45452;-78
2022/05/02 09:01:36;;;;;;;;;47.00;39.00;;;;;17.36;56.33;101529.25;5081106;27;45305;-78
2022/05/02 09:04:11;;;;;;;;;47.75;36.50;;;;;17.36;56.22;101526.63;5080367;27;45516;-79
2022/05/02 09:06:58;;;;;;;;;47.00;37.50;;;;;17.34;56.21;101525.69;5080836;27;45486;-79
2022/05/02 09:10:01;;;;;;;;;45.50;35.75;;;;;17.34;56.75;101530.94;5080132;28;45369;-76
2022/05/02 09:12:57;;;;;;;;;47.00;37.50;;;;;17.37;57.00;101525.78;5079763;28;45342;-76
2022/05/02 09:15:46;;;;;;;;;44.00;37.75;;;;;17.40;57.25;101527.59;5079430;27;45455;-77
2022/05/02 09:18:30;;;;;;;;;48.00;39.75;;;;;17.41;57.27;101532.00;5078636;27;45908;-77
2022/05/02 09:21:08;;;;;;;;;37.75;34.00;;;;;17.36;57.94;101521.41;5078454;27;45831;-79
2022/05/02 09:23:34;;;;;;;;;45.00;35.50;;;;;17.37;57.95;101524.88;5079014;28;45384;-79
2022/05/02 09:26:05;;;;;;;;;42.00;34.75;;;;;17.34;58.27;101520.47;5078481;27;45393;-78
2022/05/02 09:29:09;;;;;;;;;50.00;39.00;;;;;17.38;57.62;101517.09;5078116;27;46154;-78
2022/05/02 09:31:59;;;;;;;;;45.00;36.00;;;;;17.42;57.32;101518.06;5078534;28;45226;-77
2022/05/02 09:34:54;;;;;;;;;47.75;38.00;;;;;17.45;57.66;101505.03;5078562;27;45444;-79
2022/05/02 09:37:38;;;;;;;;;47.50;37.25;;;;;17.58;57.26;101507.16;5078483;27;45448;-78
2022/05/02 09:40:12;;;;;;;;;48.50;36.50;;;;;17.72;57.28;101498.78;5078804;27;46323;-78
2022/05/02 09:42:56;;;;;;;;;47.50;35.50;;;;;17.87;56.83;101503.53;5076718;27;45907;-80
2022/05/02 09:52:04;;;;;;;;;46.00;37.75;;;;;18.06;55.26;101500.56;5079706;27;45421;-79
2022/05/02 09:57:44;;;;;;;;;40.75;34.25;;;;;18.16;54.65;101504.31;5078100;27;45335;-78
2022/05/02 10:03:24;;;;;;;;;44.75;37.25;;;;;18.02;54.28;101488.25;5077107;27;45185;-78
2022/05/02 10:06:05;;;;;;;;;46.25;36.50;;;;;18.05;54.72;101492.69;5076019;27;45398;-78
2022/05/02 10:08:47;;;;;;;;;43.25;36.50;;;;;18.07;54.85;101496.22;5076439;28;45320;-78
2022/05/02 10:11:32;;;;;;;;;40.50;34.50;;;;;18.10;55.21;101498.91;5078226;27;45340;-78
2022/05/02 10:14:25;;;;;;;;;42.75;36.25;;;;;18.18;55.25;101499.09;5077189;27;46292;-78
2022/05/02 10:16:55;;;;;;;;;38.25;33.25;;;;;18.13;55.11;101488.50;5075878;27;45984;-78
2022/05/02 10:19:39;;;;;;;;;45.00;37.00;;;;;18.21;55.07;101494.81;5077343;27;45296;-77
2022/05/02 10:22:31;;;;;;;;;41.50;35.00;;;;;18.20;54.89;101500.91;5077912;27;45434;-79
2022/05/02 10:25:02;;;;;;;;;48.25;36.50;;;;;18.30;55.09;101485.41;5077150;27;46214;-78
2022/05/02 10:27:28;;;;;;;;;46.00;37.50;;;;;18.42;54.74;101488.31;5076129;27;45774;-77
2022/05/02 10:30:05;;;;;;;;;41.00;36.50;;;;;18.53;55.16;101484.19;5077236;27;45547;-77
2022/05/02 10:32:31;;;;;;;;;38.00;33.25;;;;;18.69;54.35;101493.28;5077886;27;45477;-79
2022/05/02 10:34:59;;;;;;;;;39.00;31.75;;;;;18.77;53.87;101482.09;5081697;27;45452;-79
2022/05/02 10:37:34;;;;;;;;;43.50;35.25;;;;;18.92;53.27;101478.91;5083437;28;45793;-80
2022/05/02 10:40:10;;;;;;;;;39.25;32.00;;;;;19.01;53.25;101481.75;5078521;27;45429;-79
2022/05/02 10:42:43;;;;;;;;;45.50;34.25;;;;;19.12;53.08;101485.50;5078918;27;45200;-79
2022/05/02 10:45:10;;;;;;;;;39.25;34.00;;;;;19.14;52.51;101465.41;5077474;27;45953;-79
2022/05/02 10:47:50;;;;;;;;;35.75;32.25;;;;;19.18;51.85;101477.72;5077320;27;45385;-79
2022/05/02 10:50:34;;;;;;;;;37.25;31.50;;;;;19.23;52.00;101477.81;5077365;27;45382;-77
2022/05/02 10:53:37;;;;;;;;;31.50;30.00;;;;;19.33;51.65;101476.28;5075509;27;45337;-80
2022/05/02 10:56:22;;;;;;;;;34.25;32.75;;;;;19.37;51.66;101461.44;5077380;27;45771;-80
2022/05/02 10:58:48;;;;;;;;;36.25;33.00;;;;;19.46;50.77;101470.41;5076555;27;45932;-78
2022/05/02 11:01:14;;;;;;;;;32.50;29.25;;;;;19.51;50.00;101470.47;5076991;27;45520;-77
2022/05/02 11:04:05;;;;;;;;;34.25;30.50;;;;;19.48;50.34;101465.16;5076921;27;45370;-78
2022/05/02 11:06:45;;;;;;;;;35.50;32.50;;;;;19.44;50.38;101469.47;5075708;27;45685;-78
2022/05/02 11:09:19;;;;;;;;;37.00;32.50;;;;;19.36;50.10;101459.69;5077075;27;45881;-80
2022/05/02 11:11:47;;;;;;;;;32.75;28.00;;;;;19.23;49.89;101453.31;5076542;27;45374;-80
2022/05/02 11:14:41;;;;;;;;;37.25;31.25;;;;;19.21;50.28;101461.19;5076907;27;45420;-79
2022/05/02 11:17:22;;;;;;;;;27.25;26.25;;;;;19.22;50.93;101454.16;5057690;27;46227;-79
2022/05/02 11:23:07;;;;;;;;;30.00;26.50;;;;;19.47;50.27;101456.41;5078465;27;45350;-79
2022/05/02 11:25:46;;;;;;;;;32.75;30.25;;;;;19.52;49.73;101443.38;5081180;27;45513;-80
2022/05/02 11:28:42;;;;;;;;;29.50;25.50;;;;;19.60;48.89;101440.84;5079282;27;45275;-79
2022/05/02 11:31:54;;;;;;;;;24.00;21.75;;;;;19.68;49.40;101441.91;5077008;28;45366;-77
2022/05/02 11:34:54;;;;;;;;;31.50;26.75;;;;;19.79;48.89;101450.84;5071808;28;45573;-80
2022/05/02 11:37:38;;;;;;;;;30.00;26.75;;;;;19.84;48.31;101434.25;5076761;27;45469;-78
2022/05/02 11:40:09;;;;;;;;;30.25;29.00;;;;;19.88;48.51;101436.97;5075140;28;47013;-78
2022/05/02 11:42:45;;;;;;;;;30.50;26.50;;;;;19.95;48.61;101436.25;5076401;27;45906;-77
2022/05/02 11:45:17;;;;;;;;;27.75;22.75;;;;;19.92;48.22;101435.31;5074748;28;45262;-77
2022/05/02 11:47:54;;;;;;;;;30.50;28.00;;;;;19.91;48.49;101437.03;5076129;27;45491;-79
2022/05/02 11:50:27;;;;;;;;;32.50;26.00;;;;;19.90;48.78;101435.28;5075953;27;45405;-79
2022/05/02 11:52:55;;;;;;;;;30.25;25.75;;;;;19.87;48.32;101429.97;5075778;27;46029;-78
2022/05/02 11:55:30;;;;;;;;;25.75;22.75;;;;;19.91;48.75;101433.56;5074763;28;45244;-79
2022/05/02 11:58:13;;;;;;;;;25.25;20.00;;;;;19.94;48.42;101423.97;5075855;27;45180;-78
2022/05/02 12:00:43;;;;;;;;;30.50;25.75;;;;;20.07;47.79;101427.66;5075622;27;45938;-79
2022/05/02 12:03:16;;;;;;;;;28.75;25.50;;;;;20.09;47.58;101417.16;5075903;27;45262;-78
2022/05/02 12:05:48;;;;;;;;;24.25;23.50;;;;;20.21;47.40;101417.34;5075763;27;45215;-75
2022/05/02 12:08:35;;;;;;;;;28.00;26.50;;;;;20.22;47.17;101418.25;5076395;27;45340;-75